createdAt,value
2022-08-27T00:02:09.876Z,20.36
2022-08-27T00:04:38.726Z,20.36
2022-08-27T00:07:08.433Z,20.34
2022-08-27T00:09:37.454Z,20.33
2022-08-27T00:12:06.150Z,20.29
2022-08-27T00:14:35.411Z,20.24
2022-08-27T00:17:05.802Z,20.26
2022-08-27T00:19:36.184Z,20.25
2022-08-27T00:22:08.801Z,20.21
2022-08-27T00:24:38.527Z,20.20
2022-08-27T00:27:18.085Z,20.16
2022-08-27T00:29:48.108Z,20.11
2022-08-27T00:32:17.302Z,20.11
2022-08-27T00:34:45.662Z,20.10
2022-08-27T00:37:14.091Z,20.07
2022-08-27T00:39:42.164Z,20.05
2022-08-27T00:42:10.572Z,20.03
2022-08-27T00:44:39.086Z,20.02
2022-08-27T00:47:17.625Z,19.96
2022-08-27T00:49:53.333Z,19.92
2022-08-27T00:52:34.786Z,19.89
2022-08-27T00:55:20.863Z,19.87
2022-08-27T00:58:03.206Z,19.82
2022-08-27T01:00:34.196Z,19.81
2022-08-27T01:03:02.281Z,19.78
2022-08-27T01:05:30.673Z,19.77
2022-08-27T01:08:04.622Z,19.72
2022-08-27T01:10:32.793Z,19.61
2022-08-27T01:13:00.976Z,19.52
2022-08-27T01:15:30.709Z,19.46
2022-08-27T01:17:59.943Z,19.42
2022-08-27T01:20:35.242Z,19.42
2022-08-27T01:23:25.637Z,19.38
2022-08-27T01:25:53.665Z,19.31
2022-08-27T01:28:22.798Z,19.26
2022-08-27T01:30:52.012Z,19.20
2022-08-27T01:33:22.040Z,19.13
2022-08-27T01:35:52.669Z,19.05
2022-08-27T01:38:30.626Z,18.98
2022-08-27T01:41:01.245Z,18.97
2022-08-27T01:43:31.560Z,18.96
2022-08-27T01:45:59.670Z,18.99
2022-08-27T01:48:27.672Z,18.95
2022-08-27T01:50:56.697Z,18.95
2022-08-27T01:53:27.138Z,18.95
2022-08-27T01:55:56.394Z,18.92
2022-08-27T01:58:30.744Z,18.86
2022-08-27T02:01:03.461Z,18.81
2022-08-27T02:03:32.820Z,18.77
2022-08-27T02:06:06.307Z,18.72
2022-08-27T02:08:34.562Z,18.70
2022-08-27T02:11:03.001Z,18.68
2022-08-27T02:13:31.001Z,18.65
2022-08-27T02:15:58.968Z,18.63
2022-08-27T02:18:27.058Z,18.58
2022-08-27T02:20:55.037Z,18.53
2022-08-27T02:23:23.102Z,18.47
2022-08-27T02:25:51.352Z,18.45
2022-08-27T02:28:19.446Z,18.41
2022-08-27T02:30:47.392Z,18.38
2022-08-27T02:33:15.803Z,18.37
2022-08-27T02:35:44.530Z,18.35
2022-08-27T02:38:14.299Z,18.35
2022-08-27T02:40:42.964Z,18.32
2022-08-27T02:43:15.998Z,18.30
2022-08-27T02:45:52.145Z,18.28
2022-08-27T02:48:20.901Z,18.29
2022-08-27T02:50:48.932Z,18.29
2022-08-27T02:53:19.077Z,18.25
2022-08-27T02:55:47.941Z,18.24
2022-08-27T02:58:17.622Z,18.26
2022-08-27T03:00:45.891Z,18.24
2022-08-27T03:03:14.082Z,18.21
2022-08-27T03:05:42.417Z,18.16
2022-08-27T03:08:10.842Z,18.11
2022-08-27T03:10:39.005Z,18.05
2022-08-27T03:13:07.092Z,18.02
2022-08-27T03:15:35.073Z,18.00
2022-08-27T03:18:22.031Z,17.96
2022-08-27T03:20:55.050Z,17.93
2022-08-27T03:23:25.615Z,17.93
2022-08-27T03:26:03.022Z,17.88
2022-08-27T03:28:35.794Z,17.85
2022-08-27T03:31:07.868Z,17.82
2022-08-27T03:33:38.944Z,17.80
2022-08-27T03:36:09.185Z,17.80
2022-08-27T03:38:38.250Z,17.81
2022-08-27T03:41:07.525Z,17.82
2022-08-27T03:43:35.833Z,17.82
2022-08-27T03:46:03.939Z,17.84
2022-08-27T03:48:32.950Z,17.85
2022-08-27T03:51:06.852Z,17.88
2022-08-27T03:53:36.667Z,17.91
2022-08-27T03:56:06.510Z,17.92
2022-08-27T03:58:36.231Z,17.94
2022-08-27T04:01:06.358Z,17.94
2022-08-27T04:03:35.518Z,17.97
2022-08-27T04:06:04.200Z,17.98
2022-08-27T04:08:32.139Z,18.02
2022-08-27T04:11:00.330Z,18.06
2022-08-27T04:13:28.265Z,18.12
2022-08-27T04:15:57.187Z,18.17
2022-08-27T04:18:25.277Z,18.24
2022-08-27T04:20:53.262Z,18.21
2022-08-27T04:23:21.945Z,18.19
2022-08-27T04:25:50.757Z,18.21
2022-08-27T04:28:18.818Z,18.25
2022-08-27T04:30:47.491Z,18.29
2022-08-27T04:33:15.574Z,18.35
2022-08-27T04:35:43.799Z,18.36
2022-08-27T04:38:12.473Z,18.41
2022-08-27T04:40:59.104Z,18.50
2022-08-27T04:43:28.965Z,18.60
2022-08-27T04:45:57.397Z,18.69
2022-08-27T04:48:25.999Z,18.76
2022-08-27T04:50:54.101Z,18.79
2022-08-27T04:53:22.535Z,18.83
2022-08-27T04:55:53.625Z,18.90
2022-08-27T04:58:23.197Z,19.00
2022-08-27T05:00:54.426Z,19.10
2022-08-27T05:03:24.431Z,19.20
2022-08-27T05:05:54.492Z,19.28
2022-08-27T05:08:22.670Z,19.36
2022-08-27T05:10:51.602Z,19.48
2022-08-27T05:13:23.889Z,19.62
2022-08-27T05:16:00.379Z,19.85
2022-08-27T05:18:28.632Z,20.47
2022-08-27T05:20:57.572Z,21.10
2022-08-27T05:23:28.318Z,21.82
2022-08-27T05:25:57.752Z,22.58
2022-08-27T05:28:28.303Z,23.33
2022-08-27T05:31:05.395Z,23.98
2022-08-27T05:33:34.395Z,24.65
2022-08-27T05:36:02.570Z,25.18
2022-08-27T05:38:31.455Z,25.66
2022-08-27T05:41:21.140Z,26.20
2022-08-27T05:43:50.520Z,26.73
2022-08-27T05:46:22.557Z,27.09
2022-08-27T05:49:11.358Z,27.51
2022-08-27T05:51:39.312Z,27.87
2022-08-27T05:54:11.601Z,28.13
2022-08-27T05:56:42.089Z,28.34
2022-08-27T05:59:28.903Z,28.59
2022-08-27T06:01:58.912Z,29.19
2022-08-27T06:04:30.321Z,29.65
2022-08-27T06:06:58.299Z,30.05
2022-08-27T06:09:29.665Z,30.26
2022-08-27T06:12:00.527Z,30.37
2022-08-27T06:14:28.959Z,30.55
2022-08-27T06:16:57.266Z,30.51
2022-08-27T06:19:25.322Z,30.65
2022-08-27T06:22:01.280Z,30.86
2022-08-27T06:24:41.099Z,30.94
2022-08-27T06:27:16.441Z,30.85
2022-08-27T06:29:45.002Z,30.52
2022-08-27T06:32:15.080Z,29.86
2022-08-27T06:34:43.110Z,29.34
2022-08-27T06:37:11.241Z,29.01
2022-08-27T06:39:40.549Z,28.73
2022-08-27T06:42:12.148Z,28.54
2022-08-27T06:44:40.587Z,28.50
2022-08-27T06:47:08.515Z,28.36
2022-08-27T06:49:40.343Z,28.19
2022-08-27T06:52:08.435Z,28.14
2022-08-27T06:54:37.602Z,28.17
2022-08-27T06:57:05.737Z,28.13
2022-08-27T06:59:33.671Z,28.19
2022-08-27T07:02:01.751Z,28.31
2022-08-27T07:04:32.240Z,28.29
2022-08-27T07:07:02.708Z,28.36
2022-08-27T07:09:32.756Z,28.45
2022-08-27T07:12:01.786Z,28.57
2022-08-27T07:14:34.267Z,28.78
2022-08-27T07:17:08.194Z,28.87
2022-08-27T07:19:40.693Z,29.03
2022-08-27T07:22:09.863Z,29.22
2022-08-27T07:24:38.753Z,29.30
2022-08-27T07:27:10.452Z,29.38
2022-08-27T07:29:38.566Z,29.56
2022-08-27T07:32:06.941Z,29.80
2022-08-27T07:34:35.466Z,30.02
2022-08-27T07:37:03.582Z,30.23
2022-08-27T07:39:41.703Z,30.50
2022-08-27T07:42:48.740Z,30.79
2022-08-27T07:45:17.114Z,31.05
2022-08-27T07:47:45.315Z,31.02
2022-08-27T07:50:14.218Z,31.21
2022-08-27T07:52:44.422Z,31.59
2022-08-27T07:55:13.766Z,31.89
2022-08-27T07:57:42.342Z,32.27
2022-08-27T08:00:11.483Z,32.62
2022-08-27T08:02:42.361Z,32.91
2022-08-27T08:05:13.368Z,33.14
2022-08-27T08:07:41.826Z,33.50
2022-08-27T08:10:12.289Z,33.78
2022-08-27T08:12:41.242Z,34.13
2022-08-27T08:15:11.491Z,34.35
2022-08-27T08:17:39.912Z,34.64
2022-08-27T08:20:23.757Z,34.90
2022-08-27T08:22:55.852Z,34.89
2022-08-27T08:25:24.078Z,35.12
2022-08-27T08:27:52.530Z,35.30
2022-08-27T08:30:20.876Z,35.51
2022-08-27T08:32:49.068Z,35.50
2022-08-27T08:35:18.483Z,35.56
2022-08-27T08:37:47.356Z,35.71
2022-08-27T08:40:43.407Z,35.70
2022-08-27T08:43:25.845Z,35.80
2022-08-27T08:45:56.652Z,36.27
2022-08-27T08:48:30.000Z,36.79
2022-08-27T08:51:05.779Z,36.80
2022-08-27T08:53:38.841Z,37.17
2022-08-27T08:56:12.629Z,37.63
2022-08-27T08:58:59.054Z,37.54
2022-08-27T09:01:28.150Z,37.69
2022-08-27T09:04:03.735Z,37.91
2022-08-27T09:06:52.492Z,38.44
2022-08-27T09:09:27.820Z,38.64
2022-08-27T09:12:05.942Z,38.67
2022-08-27T09:14:41.714Z,38.25
2022-08-27T09:17:14.988Z,37.94
2022-08-27T09:19:43.663Z,38.59
2022-08-27T09:22:30.259Z,39.31
2022-08-27T09:25:22.813Z,39.63
2022-08-27T09:27:57.780Z,39.42
2022-08-27T09:30:31.748Z,39.07
2022-08-27T09:33:04.607Z,39.24
2022-08-27T09:35:45.161Z,39.80
2022-08-27T09:38:29.618Z,39.64
2022-08-27T09:41:02.062Z,39.52
2022-08-27T09:43:32.266Z,39.84
2022-08-27T09:46:05.677Z,40.19
2022-08-27T09:48:37.827Z,40.05
2022-08-27T09:51:15.127Z,39.12
2022-08-27T09:53:56.161Z,39.76
2022-08-27T09:56:53.933Z,40.51
2022-08-27T09:59:50.475Z,41.39
2022-08-27T10:02:22.551Z,41.67
2022-08-27T10:04:53.508Z,41.37
2022-08-27T10:07:54.286Z,41.23
2022-08-27T10:10:30.635Z,42.24
2022-08-27T10:13:13.432Z,42.86
2022-08-27T10:15:48.967Z,43.43
2022-08-27T10:18:48.140Z,43.38
2022-08-27T10:21:30.714Z,43.90
2022-08-27T10:24:20.252Z,44.36
2022-08-27T10:27:14.444Z,44.05
2022-08-27T10:30:01.294Z,42.82
2022-08-27T10:33:06.822Z,41.55
2022-08-27T10:36:04.637Z,41.99
2022-08-27T10:38:53.591Z,42.90
2022-08-27T10:42:14.261Z,43.06
2022-08-27T10:45:15.945Z,43.26
2022-08-27T10:48:30.942Z,43.98
2022-08-27T10:51:09.334Z,43.48
2022-08-27T10:53:48.342Z,42.93
2022-08-27T10:56:32.210Z,43.03
2022-08-27T10:59:18.006Z,42.40
2022-08-27T11:02:00.462Z,42.02
2022-08-27T11:04:35.708Z,42.86
2022-08-27T11:07:24.652Z,43.29
2022-08-27T11:10:13.765Z,43.37
2022-08-27T11:12:47.175Z,43.59
2022-08-27T11:15:23.542Z,44.09
2022-08-27T11:18:21.201Z,44.61
2022-08-27T11:21:03.443Z,44.28
2022-08-27T11:23:47.913Z,44.47
2022-08-27T11:26:16.235Z,45.01
2022-08-27T11:28:51.660Z,45.70
2022-08-27T11:31:34.209Z,45.51
2022-08-27T11:34:02.822Z,44.29
2022-08-27T11:36:53.252Z,43.51
2022-08-27T11:39:37.925Z,43.19
2022-08-27T11:42:17.864Z,43.89
2022-08-27T11:44:49.703Z,44.19
2022-08-27T11:47:24.804Z,44.56
2022-08-27T11:50:01.912Z,44.54
2022-08-27T11:52:40.216Z,43.76
2022-08-27T11:55:20.305Z,42.83
2022-08-27T11:58:02.622Z,43.21
2022-08-27T12:00:38.832Z,44.15
2022-08-27T12:03:19.109Z,45.48
2022-08-27T12:05:53.336Z,45.60
2022-08-27T12:08:24.329Z,45.41
2022-08-27T12:11:24.790Z,44.26
2022-08-27T12:14:14.812Z,43.89
2022-08-27T12:17:33.427Z,44.58
2022-08-27T12:20:26.241Z,44.53
2022-08-27T12:23:32.986Z,45.00
2022-08-27T12:26:32.936Z,44.41
2022-08-27T12:29:19.424Z,44.39
2022-08-27T12:32:00.524Z,43.91
2022-08-27T12:34:29.877Z,42.22
2022-08-27T12:36:57.921Z,41.25
2022-08-27T12:39:30.134Z,41.56
2022-08-27T12:41:58.237Z,41.53
2022-08-27T12:44:29.118Z,40.58
2022-08-27T12:47:05.527Z,40.23
2022-08-27T12:49:52.621Z,40.70
2022-08-27T12:52:56.925Z,42.16
2022-08-27T12:55:37.554Z,43.92
2022-08-27T12:58:16.031Z,44.52
2022-08-27T13:01:11.797Z,44.66
2022-08-27T13:03:44.605Z,44.42
2022-08-27T13:06:34.711Z,45.17
2022-08-27T13:09:07.520Z,45.75
2022-08-27T13:11:48.258Z,45.09
2022-08-27T13:14:20.372Z,43.98
2022-08-27T13:16:57.661Z,42.53
2022-08-27T13:19:30.819Z,41.96
2022-08-27T13:22:05.802Z,40.35
2022-08-27T13:24:35.739Z,39.83
2022-08-27T13:27:06.128Z,40.50
2022-08-27T13:29:34.851Z,40.79
2022-08-27T13:32:05.884Z,39.61
2022-08-27T13:34:38.925Z,38.19
2022-08-27T13:37:23.365Z,37.98
2022-08-27T13:39:57.159Z,38.68
2022-08-27T13:42:28.229Z,39.32
2022-08-27T13:45:06.337Z,38.86
2022-08-27T13:47:45.606Z,38.11
2022-08-27T13:50:20.840Z,37.45
2022-08-27T13:53:09.039Z,37.21
2022-08-27T13:55:47.995Z,37.10
2022-08-27T13:58:23.897Z,36.71
2022-08-27T14:00:52.420Z,36.42
2022-08-27T14:03:33.056Z,36.61
2022-08-27T14:06:02.644Z,37.87
2022-08-27T14:08:34.466Z,39.53
2022-08-27T14:11:07.232Z,40.92
2022-08-27T14:13:45.829Z,41.91
2022-08-27T14:16:24.392Z,42.22
2022-08-27T14:19:06.955Z,41.86
2022-08-27T14:21:57.173Z,40.35
2022-08-27T14:24:26.501Z,39.09
2022-08-27T14:27:04.177Z,37.94
2022-08-27T14:29:32.291Z,37.09
2022-08-27T14:32:00.292Z,36.59
2022-08-27T14:34:29.042Z,36.08
2022-08-27T14:36:57.357Z,35.56
2022-08-27T14:39:26.697Z,35.32
2022-08-27T14:41:56.455Z,35.10
2022-08-27T14:44:25.913Z,34.77
2022-08-27T14:46:55.023Z,34.39
2022-08-27T14:49:34.855Z,34.15
2022-08-27T14:52:05.564Z,34.11
2022-08-27T14:54:34.663Z,33.96
2022-08-27T14:57:03.953Z,33.99
2022-08-27T14:59:33.247Z,34.79
2022-08-27T15:02:04.918Z,36.17
2022-08-27T15:04:33.334Z,37.90
2022-08-27T15:07:01.785Z,39.17
2022-08-27T15:09:30.145Z,41.21
2022-08-27T15:11:58.545Z,42.68
2022-08-27T15:14:32.937Z,43.95
2022-08-27T15:17:01.426Z,44.19
2022-08-27T15:19:31.013Z,44.42
2022-08-27T15:22:23.526Z,44.69
2022-08-27T15:24:56.491Z,44.76
2022-08-27T15:27:30.119Z,44.94
2022-08-27T15:30:10.110Z,45.30
2022-08-27T15:32:42.107Z,45.14
2022-08-27T15:35:15.727Z,45.01
2022-08-27T15:37:45.456Z,44.38
2022-08-27T15:40:16.769Z,44.41
2022-08-27T15:42:45.375Z,44.81
2022-08-27T15:45:14.792Z,45.25
2022-08-27T15:47:43.225Z,45.25
2022-08-27T15:50:11.620Z,43.92
2022-08-27T15:52:41.862Z,43.36
2022-08-27T15:55:20.298Z,42.88
2022-08-27T15:57:48.734Z,41.50
2022-08-27T16:00:17.865Z,40.83
2022-08-27T16:02:46.963Z,40.45
2022-08-27T16:05:16.850Z,39.25
2022-08-27T16:07:45.255Z,38.61
2022-08-27T16:10:17.075Z,38.89
2022-08-27T16:12:45.843Z,39.26
2022-08-27T16:15:14.250Z,39.04
2022-08-27T16:17:42.625Z,38.59
2022-08-27T16:20:13.795Z,38.97
2022-08-27T16:22:42.315Z,39.43
2022-08-27T16:25:16.500Z,39.36
2022-08-27T16:27:47.800Z,38.29
2022-08-27T16:30:15.745Z,37.50
2022-08-27T16:32:49.038Z,37.02
2022-08-27T16:35:17.388Z,36.02
2022-08-27T16:37:45.809Z,35.56
2022-08-27T16:40:15.789Z,35.68
2022-08-27T16:42:47.895Z,34.99
2022-08-27T16:45:17.951Z,33.94
2022-08-27T16:48:04.258Z,33.21
2022-08-27T16:50:35.344Z,32.75
2022-08-27T16:53:09.168Z,32.32
2022-08-27T16:55:40.530Z,31.98
2022-08-27T16:58:16.065Z,31.69
2022-08-27T17:00:46.138Z,31.36
2022-08-27T17:03:14.305Z,31.11
2022-08-27T17:05:42.795Z,30.86
2022-08-27T17:08:11.910Z,30.64
2022-08-27T17:10:47.993Z,30.36
2022-08-27T17:13:22.446Z,30.10
2022-08-27T17:15:57.067Z,29.92
2022-08-27T17:18:27.846Z,29.72
2022-08-27T17:20:59.162Z,29.54
2022-08-27T17:23:39.895Z,29.35
2022-08-27T17:26:11.899Z,29.09
2022-08-27T17:28:41.732Z,28.91
2022-08-27T17:31:14.647Z,28.75
2022-08-27T17:33:48.430Z,28.51
2022-08-27T17:36:16.988Z,28.36
2022-08-27T17:38:45.569Z,28.22
2022-08-27T17:41:34.322Z,28.06
2022-08-27T17:44:10.403Z,27.94
2022-08-27T17:46:39.066Z,27.83
2022-08-27T17:49:06.949Z,27.72
2022-08-27T17:51:36.199Z,27.62
2022-08-27T17:54:06.216Z,27.54
2022-08-27T17:56:34.384Z,27.36
2022-08-27T17:59:02.321Z,27.23
2022-08-27T18:01:32.493Z,26.96
2022-08-27T18:04:00.582Z,26.79
2022-08-27T18:06:28.872Z,26.64
2022-08-27T18:08:57.136Z,26.47
2022-08-27T18:11:26.119Z,26.36
2022-08-27T18:14:01.538Z,26.23
2022-08-27T18:16:32.993Z,26.19
2022-08-27T18:19:06.963Z,26.19
2022-08-27T18:21:35.675Z,26.12
2022-08-27T18:24:04.123Z,26.03
2022-08-27T18:26:33.930Z,25.97
2022-08-27T18:29:02.123Z,25.90
2022-08-27T18:31:32.134Z,25.76
2022-08-27T18:34:00.775Z,25.74
2022-08-27T18:36:29.322Z,25.63
2022-08-27T18:39:00.077Z,25.58
2022-08-27T18:41:31.478Z,25.46
2022-08-27T18:44:00.122Z,25.32
2022-08-27T18:46:28.333Z,25.21
2022-08-27T18:48:56.318Z,25.06
2022-08-27T18:51:24.289Z,24.93
2022-08-27T18:53:52.478Z,24.79
2022-08-27T18:56:20.858Z,24.69
2022-08-27T18:58:49.014Z,24.58
2022-08-27T19:01:25.671Z,24.56
2022-08-27T19:03:57.096Z,24.50
2022-08-27T19:06:25.815Z,24.44
2022-08-27T19:08:53.816Z,24.36
2022-08-27T19:11:21.997Z,24.27
2022-08-27T19:13:51.007Z,24.18
2022-08-27T19:16:39.287Z,24.08
2022-08-27T19:19:07.639Z,24.06
2022-08-27T19:21:35.676Z,23.95
2022-08-27T19:24:04.519Z,23.87
2022-08-27T19:26:33.108Z,23.84
2022-08-27T19:29:01.248Z,23.79
2022-08-27T19:31:31.693Z,23.75
2022-08-27T19:34:00.573Z,23.70
2022-08-27T19:36:28.618Z,23.66
2022-08-27T19:38:56.835Z,23.64
2022-08-27T19:41:27.720Z,23.58
2022-08-27T19:43:56.165Z,23.55
2022-08-27T19:46:26.334Z,23.52
2022-08-27T19:48:55.740Z,23.50
2022-08-27T19:51:23.724Z,23.45
2022-08-27T19:53:51.739Z,23.42
2022-08-27T19:56:19.717Z,23.37
2022-08-27T19:58:47.785Z,23.29
2022-08-27T20:01:16.253Z,23.25
2022-08-27T20:03:44.539Z,23.18
2022-08-27T20:06:13.189Z,23.12
2022-08-27T20:08:41.102Z,23.05
2022-08-27T20:11:09.737Z,22.99
2022-08-27T20:13:37.998Z,22.93
2022-08-27T20:16:16.803Z,22.85
2022-08-27T20:18:46.474Z,22.82
2022-08-27T20:21:14.495Z,22.75
2022-08-27T20:23:42.397Z,22.69
2022-08-27T20:26:10.368Z,22.62
2022-08-27T20:28:40.285Z,22.53
2022-08-27T20:31:08.875Z,22.49
2022-08-27T20:33:37.034Z,22.45
2022-08-27T20:36:06.511Z,22.38
2022-08-27T20:38:35.064Z,22.34
2022-08-27T20:41:03.452Z,22.32
2022-08-27T20:43:31.591Z,22.26
2022-08-27T20:46:00.273Z,22.19
2022-08-27T20:48:28.595Z,22.10
2022-08-27T20:50:56.652Z,22.05
2022-08-27T20:53:24.959Z,22.05
2022-08-27T20:55:56.758Z,22.01
2022-08-27T20:58:44.011Z,21.94
2022-08-27T21:01:12.234Z,21.90
2022-08-27T21:03:40.534Z,21.89
2022-08-27T21:06:09.209Z,21.84
2022-08-27T21:08:39.664Z,21.79
2022-08-27T21:11:15.566Z,21.72
2022-08-27T21:13:55.603Z,21.68
2022-08-27T21:16:25.718Z,21.68
2022-08-27T21:18:54.125Z,21.59
2022-08-27T21:21:22.869Z,21.58
2022-08-27T21:23:50.945Z,21.57
2022-08-27T21:26:20.413Z,21.57
2022-08-27T21:28:48.494Z,21.59
2022-08-27T21:31:25.262Z,21.54
2022-08-27T21:33:53.509Z,21.45
2022-08-27T21:36:21.827Z,21.35
2022-08-27T21:38:50.433Z,21.27
2022-08-27T21:41:18.409Z,21.20
2022-08-27T21:43:46.416Z,21.12
2022-08-27T21:46:14.665Z,21.06
2022-08-27T21:48:42.625Z,21.05
2022-08-27T21:51:13.842Z,21.03
2022-08-27T21:53:43.159Z,21.03
2022-08-27T21:56:12.257Z,20.99
2022-08-27T21:58:40.830Z,20.99
2022-08-27T22:01:08.955Z,20.92
2022-08-27T22:03:37.048Z,20.84
2022-08-27T22:06:08.596Z,20.82
2022-08-27T22:08:36.459Z,20.75
2022-08-27T22:11:05.071Z,20.67
2022-08-27T22:13:33.669Z,20.64
2022-08-27T22:16:02.185Z,20.59
2022-08-27T22:18:30.541Z,20.55
2022-08-27T22:21:00.439Z,20.50
2022-08-27T22:23:28.543Z,20.46
2022-08-27T22:25:56.688Z,20.38
2022-08-27T22:28:24.603Z,20.27
2022-08-27T22:30:52.616Z,20.26
2022-08-27T22:33:20.859Z,20.20
2022-08-27T22:35:48.875Z,20.14
2022-08-27T22:38:16.817Z,20.11
2022-08-27T22:40:44.819Z,20.12
2022-08-27T22:43:14.595Z,20.11
2022-08-27T22:45:42.576Z,20.11
2022-08-27T22:48:10.982Z,20.06
2022-08-27T22:50:39.154Z,19.97
2022-08-27T22:53:07.456Z,19.87
2022-08-27T22:55:36.287Z,19.76
2022-08-27T22:58:04.510Z,19.72
2022-08-27T23:00:36.300Z,19.68
2022-08-27T23:03:07.624Z,19.64
2022-08-27T23:05:40.482Z,19.62
2022-08-27T23:08:12.247Z,19.55
2022-08-27T23:10:42.615Z,19.51
2022-08-27T23:13:12.318Z,19.48
2022-08-27T23:15:41.348Z,19.46
2022-08-27T23:18:09.469Z,19.40
2022-08-27T23:20:37.531Z,19.35
2022-08-27T23:23:08.147Z,19.30
2022-08-27T23:25:54.816Z,19.28
2022-08-27T23:28:23.651Z,19.24
2022-08-27T23:30:51.986Z,19.24
2022-08-27T23:33:20.503Z,19.19
2022-08-27T23:35:51.594Z,19.12
2022-08-27T23:38:21.431Z,19.03
2022-08-27T23:40:50.575Z,19.00
2022-08-27T23:43:19.713Z,19.01
2022-08-27T23:45:49.346Z,18.99
2022-08-27T23:48:17.254Z,18.98
2022-08-27T23:50:45.972Z,18.96
2022-08-27T23:53:14.843Z,18.90
2022-08-27T23:55:42.866Z,18.85
2022-08-27T23:58:12.273Z,18.78
